Time;durP1;ratioP1;P1;durP2;ratioP2;P2;SDS_P1;SDS_P2;PMS_P1;PMS_P2;Temp;Humidity;BMP_temperature;BMP_pressure;BME280_temperature;BME280_humidity;BME280_pressure;Samples;Min_cycle;Max_cycle;Signal;HPM_P1;HPM_P2
2022/07/23 00:00:20;;;;;;;7.90;6.20;;;;;;;13.14;100.00;101040.56;4975472;28;20049;-79
2022/07/23 00:02:47;;;;;;;9.20;6.10;;;;;;;13.13;100.00;101033.50;4953059;28;20495;-79
2022/07/23 00:05:14;;;;;;;11.45;6.20;;;;;;;13.15;100.00;101034.34;4983727;28;20101;-82
2022/07/23 00:07:40;;;;;;;8.70;6.43;;;;;;;13.11;100.00;101027.34;4953582;28;20038;-81
2022/07/23 00:10:08;;;;;;;9.05;6.60;;;;;;;13.13;100.00;101030.00;4952652;28;20039;-81
2022/07/23 00:12:35;;;;;;;7.93;6.28;;;;;;;13.06;100.00;101021.31;4958190;28;20061;-81
2022/07/23 00:15:03;;;;;;;8.40;5.88;;;;;;;13.05;100.00;101016.06;4954038;28;20121;-81
2022/07/23 00:17:31;;;;;;;8.65;6.38;;;;;;;13.02;100.00;101018.75;4967697;28;20101;-82
2022/07/23 00:19:58;;;;;;;9.57;6.85;;;;;;;12.98;100.00;101020.63;4940493;28;20129;-81
2022/07/23 00:22:25;;;;;;;7.65;6.43;;;;;;;12.94;100.00;101000.38;4957408;28;20058;-80
2022/07/23 00:24:52;;;;;;;8.73;6.43;;;;;;;12.90;100.00;101007.56;4968651;28;20038;-80
2022/07/23 00:27:39;;;;;;;8.43;6.47;;;;;;;12.90;100.00;100999.59;4978763;28;20053;-78
2022/07/23 00:30:06;;;;;;;8.43;6.38;;;;;;;12.91;100.00;100998.69;4973362;28;20047;-80
2022/07/23 00:32:47;;;;;;;8.02;6.18;;;;;;;12.83;100.00;100990.03;4952509;28;20034;-80
2022/07/23 00:35:22;;;;;;;9.43;6.30;;;;;;;12.74;100.00;100990.28;4958160;28;20049;-79
2022/07/23 00:37:49;;;;;;;7.90;5.65;;;;;;;12.67;100.00;100988.66;4969005;28;20566;-79
2022/07/23 00:40:15;;;;;;;9.35;6.22;;;;;;;12.63;100.00;100994.97;4960908;28;20043;-79
2022/07/23 00:42:42;;;;;;;8.27;6.50;;;;;;;12.56;100.00;101004.84;4955936;28;20134;-79
2022/07/23 00:45:09;;;;;;;8.55;6.38;;;;;;;12.58;100.00;101005.66;4959197;28;20047;-79
2022/07/23 00:47:36;;;;;;;8.50;6.25;;;;;;;12.59;100.00;100998.59;4958841;28;20035;-80
2022/07/23 00:50:05;;;;;;;10.40;7.00;;;;;;;12.54;100.00;100990.75;4941052;28;20507;-79
2022/07/23 00:52:32;;;;;;;9.23;6.53;;;;;;;12.55;100.00;100991.63;4962397;28;20153;-79
2022/07/23 00:54:59;;;;;;;7.53;6.20;;;;;;;12.52;100.00;100987.25;4974541;28;20046;-80
2022/07/23 00:57:26;;;;;;;10.73;6.95;;;;;;;12.51;100.00;100989.94;4959614;28;20081;-78
2022/07/23 00:59:54;;;;;;;10.73;6.97;;;;;;;12.45;100.00;101001.56;4973856;28;20088;-80
2022/07/23 01:02:21;;;;;;;7.72;6.32;;;;;;;12.46;100.00;100998.00;4943583;28;20121;-80
2022/07/23 01:04:48;;;;;;;8.98;7.25;;;;;;;12.43;100.00;101002.50;4962872;28;20138;-80
2022/07/23 01:07:15;;;;;;;7.13;5.78;;;;;;;12.38;100.00;101002.59;4954213;28;20054;-79
2022/07/23 01:09:44;;;;;;;8.50;7.00;;;;;;;12.37;100.00;101004.38;4959484;28;20050;-82
2022/07/23 01:12:11;;;;;;;8.73;6.38;;;;;;;12.35;100.00;101000.88;4965020;28;20433;-80
2022/07/23 01:14:38;;;;;;;11.55;6.75;;;;;;;12.32;100.00;101008.91;4951734;28;20051;-81
2022/07/23 01:17:05;;;;;;;8.43;6.68;;;;;;;12.30;100.00;101010.72;4950970;28;20065;-82
2022/07/23 01:19:32;;;;;;;8.50;6.53;;;;;;;12.27;100.00;101021.38;4940270;28;20062;-82
2022/07/23 01:22:01;;;;;;;7.55;6.45;;;;;;;12.27;100.00;101023.16;4950765;28;20035;-83
2022/07/23 01:24:28;;;;;;;10.27;7.30;;;;;;;12.24;100.00;101029.38;4942707;28;20051;-81
2022/07/23 01:26:54;;;;;;;9.07;6.97;;;;;;;12.25;100.00;101027.63;4980992;28;20118;-81
2022/07/23 01:29:21;;;;;;;8.68;7.18;;;;;;;12.24;100.00;101012.63;4956668;28;20043;-82
2022/07/23 01:31:48;;;;;;;9.38;6.35;;;;;;;12.25;100.00;101017.03;4949070;28;20126;-82
2022/07/23 01:34:15;;;;;;;8.80;6.22;;;;;;;12.20;100.00;101005.66;4954032;28;20085;-80
2022/07/23 01:36:41;;;;;;;7.90;6.63;;;;;;;12.25;100.00;101003.78;4952454;28;20038;-81
2022/07/23 01:39:08;;;;;;;9.93;7.05;;;;;;;12.26;100.00;100995.78;4948975;28;21555;-81
2022/07/23 01:41:35;;;;;;;9.30;7.38;;;;;;;12.29;100.00;100994.88;4937829;28;20093;-81
2022/07/23 01:44:03;;;;;;;8.13;5.68;;;;;;;12.22;100.00;100995.91;4949365;28;20117;-81
2022/07/23 01:46:29;;;;;;;9.63;6.50;;;;;;;12.14;100.00;100989.91;4935039;28;20144;-80
2022/07/23 01:48:56;;;;;;;8.82;6.88;;;;;;;12.09;100.00;100984.69;4951605;28;20154;-81
2022/07/23 01:51:23;;;;;;;6.93;5.70;;;;;;;12.08;100.00;100977.66;4967553;28;20436;-81
2022/07/23 01:53:50;;;;;;;8.90;6.40;;;;;;;12.06;100.00;100977.69;4945949;28;20037;-80
2022/07/23 01:56:18;;;;;;;9.55;6.68;;;;;;;12.03;100.00;100983.06;4968926;28;20043;-81
2022/07/23 01:58:45;;;;;;;7.65;6.03;;;;;;;12.00;100.00;100969.88;4955795;28;20054;-81
2022/07/23 02:01:12;;;;;;;8.35;5.57;;;;;;;11.99;100.00;100969.91;4962542;28;20039;-81
2022/07/23 02:03:39;;;;;;;9.25;6.00;;;;;;;11.95;100.00;100977.06;4982919;28;20037;-80
2022/07/23 02:06:05;;;;;;;9.98;7.05;;;;;;;11.92;100.00;100985.03;4942328;28;20055;-80
2022/07/23 02:08:32;;;;;;;9.43;6.40;;;;;;;11.88;100.00;100993.97;4980749;28;20034;-80
2022/07/23 02:10:59;;;;;;;8.57;6.82;;;;;;;11.86;100.00;100990.50;4942578;28;20307;-81
2022/07/23 02:13:25;;;;;;;8.10;6.57;;;;;;;11.90;100.00;100989.50;4959563;28;20050;-79
2022/07/23 02:15:59;;;;;;;9.18;6.32;;;;;;;11.93;100.00;100993.84;4952059;28;20047;-81
2022/07/23 02:18:26;;;;;;;8.65;6.60;;;;;;;11.93;100.00;100983.25;4958823;28;20390;-81
2022/07/23 02:20:52;;;;;;;8.77;6.32;;;;;;;11.91;100.00;100985.94;4971897;28;20039;-79
2022/07/23 02:23:19;;;;;;;8.48;6.40;;;;;;;11.85;100.00;100980.78;4959174;28;20035;-81
2022/07/23 02:25:46;;;;;;;7.88;6.45;;;;;;;11.82;100.00;100980.84;4948650;28;20039;-80
2022/07/23 02:28:12;;;;;;;9.48;5.75;;;;;;;11.82;100.00;100979.06;4937739;28;21820;-80
2022/07/23 02:30:39;;;;;;;8.80;6.00;;;;;;;11.84;100.00;100977.25;4942801;29;20046;-79
2022/07/23 02:33:06;;;;;;;10.65;6.32;;;;;;;11.83;100.00;100983.47;5002148;28;20043;-80
2022/07/23 02:35:33;;;;;;;7.97;6.32;;;;;;;11.86;100.00;100985.19;4975697;28;20038;-80
2022/07/23 02:37:59;;;;;;;8.45;6.55;;;;;;;11.93;100.00;100984.13;4978980;28;20039;-80
2022/07/23 02:40:26;;;;;;;7.63;6.43;;;;;;;11.95;100.00;100984.13;4943651;28;20098;-81
2022/07/23 02:42:53;;;;;;;10.07;6.15;;;;;;;11.97;100.00;100990.25;4964771;28;20496;-80
2022/07/23 02:45:19;;;;;;;9.23;6.78;;;;;;;12.05;100.00;100981.25;4981765;28;20050;-81
2022/07/23 02:47:46;;;;;;;12.52;7.85;;;;;;;12.08;100.00;100973.22;4934537;28;20050;-79
2022/07/23 02:50:13;;;;;;;9.00;6.85;;;;;;;12.11;100.00;100978.47;4960216;28;20110;-80
2022/07/23 02:52:40;;;;;;;9.07;6.57;;;;;;;12.16;100.00;100983.66;4983371;28;20030;-81
2022/07/23 02:55:07;;;;;;;9.55;7.10;;;;;;;12.24;100.00;100975.53;4975101;28;20034;-80
2022/07/23 02:57:33;;;;;;;10.90;7.05;;;;;;;12.23;100.00;100969.38;4990212;28;20038;-79
2022/07/23 03:00:00;;;;;;;8.85;7.05;;;;;;;12.25;100.00;100975.50;4973843;28;20043;-80
2022/07/23 03:02:27;;;;;;;8.02;6.40;;;;;;;12.23;100.00;100972.03;4960304;28;20217;-80
2022/07/23 03:04:54;;;;;;;10.40;7.30;;;;;;;12.27;100.00;100976.34;4971393;28;20142;-79
2022/07/23 03:07:20;;;;;;;9.05;6.38;;;;;;;12.31;100.00;100982.44;4964606;28;20452;-80
2022/07/23 03:09:47;;;;;;;8.40;6.72;;;;;;;12.30;100.00;100988.66;4988565;28;20039;-80
2022/07/23 03:12:14;;;;;;;9.02;6.28;;;;;;;12.32;100.00;100993.00;4979748;28;20042;-81
2022/07/23 03:14:41;;;;;;;8.70;5.90;;;;;;;12.31;100.00;100993.91;4939796;28;20655;-80
2022/07/23 03:17:08;;;;;;;7.78;6.28;;;;;;;12.34;100.00;100998.28;4946295;28;20133;-80
2022/07/23 03:19:38;;;;;;;10.13;6.22;;;;;;;12.37;100.00;100992.91;4965886;28;20657;-80
2022/07/23 03:22:05;;;;;;;8.20;6.40;;;;;;;12.39;100.00;100988.44;4965825;28;20097;-80
2022/07/23 03:27:17;;;;;;;10.60;7.07;;;;;;;12.46;100.00;100995.34;4957472;28;20476;-80
2022/07/23 03:29:44;;;;;;;7.63;6.53;;;;;;;12.43;100.00;100998.06;4964640;28;20057;-79
2022/07/23 03:32:10;;;;;;;9.07;6.65;;;;;;;12.46;100.00;100991.84;4971342;28;20046;-79
2022/07/23 03:34:38;;;;;;;8.90;6.05;;;;;;;12.40;100.00;100993.72;4969965;28;20042;-79
2022/07/23 03:37:05;;;;;;;9.30;6.45;;;;;;;12.36;100.00;100999.13;4953104;28;20130;-80
2022/07/23 03:39:32;;;;;;;7.55;5.57;;;;;;;12.35;100.00;100990.28;4959359;28;20082;-80
2022/07/23 03:42:00;;;;;;;9.82;6.65;;;;;;;12.35;100.00;100992.06;4969647;28;20039;-80
2022/07/23 03:44:27;;;;;;;9.68;6.65;;;;;;;12.35;100.00;100992.94;4953299;28;20701;-79
2022/07/23 03:46:53;;;;;;;8.30;5.75;;;;;;;12.32;100.00;100990.34;4969626;28;20129;-80
2022/07/23 03:49:20;;;;;;;9.07;5.72;;;;;;;12.28;100.00;100987.84;4960892;28;20051;-79
2022/07/23 03:51:47;;;;;;;7.75;5.72;;;;;;;12.32;100.00;100989.50;4977584;28;20121;-79
2022/07/23 03:54:14;;;;;;;7.70;6.25;;;;;;;12.40;100.00;100985.75;4934973;28;20041;-79
2022/07/23 03:56:40;;;;;;;8.85;6.47;;;;;;;12.44;100.00;100977.72;4977533;28;20053;-79
2022/07/23 03:59:07;;;;;;;9.00;6.15;;;;;;;12.44;100.00;100972.44;4970673;28;20416;-80
2022/07/23 04:01:34;;;;;;;8.35;6.80;;;;;;;12.41;100.00;100970.72;4968539;28;20039;-79
2022/07/23 04:04:02;;;;;;;7.75;5.90;;;;;;;12.46;100.00;100976.81;4969057;28;20133;-80
2022/07/23 04:06:28;;;;;;;7.97;6.13;;;;;;;12.44;100.00;100994.50;4944576;28;20039;-79
2022/07/23 04:08:55;;;;;;;9.15;5.60;;;;;;;12.47;100.00;100997.09;4952096;28;20039;-80
2022/07/23 04:11:22;;;;;;;9.75;5.80;;;;;;;12.62;100.00;101004.69;4969579;28;20404;-79
2022/07/23 04:13:48;;;;;;;8.38;6.35;;;;;;;12.72;100.00;101005.34;4955511;28;20098;-79
2022/07/23 04:16:15;;;;;;;7.53;6.10;;;;;;;12.80;100.00;100992.78;4955108;28;20046;-79
2022/07/23 04:18:42;;;;;;;8.10;6.68;;;;;;;12.90;100.00;100985.47;4953689;28;20039;-79
2022/07/23 04:21:08;;;;;;;8.23;6.45;;;;;;;12.94;100.00;100977.38;4967107;28;20070;-79
2022/07/23 04:23:35;;;;;;;9.68;6.88;;;;;;;13.03;100.00;100967.44;4947896;28;20412;-81
2022/07/23 04:26:02;;;;;;;8.93;6.25;;;;;;;13.14;100.00;100973.38;4940610;28;20054;-80
2022/07/23 04:28:28;;;;;;;7.63;5.50;;;;;;;13.22;100.00;100976.72;4973225;28;20034;-79
2022/07/23 04:30:58;;;;;;;9.77;6.43;;;;;;;13.41;100.00;100991.25;4978170;28;20042;-80
2022/07/23 04:33:25;;;;;;;8.90;6.28;;;;;;;13.55;100.00;101006.81;4968672;28;20043;-79
2022/07/23 04:35:52;;;;;;;10.02;6.28;;;;;;;13.61;100.00;101013.72;4966867;28;20062;-79
2022/07/23 04:38:19;;;;;;;6.68;5.63;;;;;;;13.66;100.00;101006.50;4975797;28;20512;-79
2022/07/23 04:40:46;;;;;;;7.97;6.32;;;;;;;13.79;100.00;101011.44;4954894;28;20047;-79
2022/07/23 04:43:12;;;;;;;7.93;5.68;;;;;;;13.87;100.00;100999.69;4975845;28;20510;-80
2022/07/23 04:45:39;;;;;;;10.05;6.18;;;;;;;13.98;100.00;101000.28;4943023;29;20043;-79
2022/07/23 04:48:06;;;;;;;11.98;6.53;;;;;;;13.99;100.00;100997.56;4957790;28;20047;-79
2022/07/23 04:50:33;;;;;;;6.28;5.68;;;;;;;13.99;100.00;101000.22;4958009;28;20046;-79
2022/07/23 04:52:59;;;;;;;9.98;6.85;;;;;;;13.99;100.00;101005.56;4974479;28;20089;-80
2022/07/23 04:55:26;;;;;;;8.90;5.80;;;;;;;14.04;100.00;100986.81;4933039;28;20050;-80
2022/07/23 04:57:53;;;;;;;8.52;6.10;;;;;;;14.05;100.00;100983.25;4948929;28;20497;-79
2022/07/23 05:00:19;;;;;;;8.13;6.20;;;;;;;13.96;100.00;100981.75;4982871;28;20035;-79
2022/07/23 05:02:46;;;;;;;7.05;5.68;;;;;;;13.92;100.00;100984.50;4957719;28;20056;-80
2022/07/23 05:05:12;;;;;;;7.40;5.43;;;;;;;13.91;100.00;100983.66;4954675;28;20039;-79
2022/07/23 05:07:39;;;;;;;7.50;5.55;;;;;;;13.92;100.00;100984.50;4940938;28;20077;-79
2022/07/23 05:10:06;;;;;;;7.13;5.78;;;;;;;13.95;100.00;100979.09;4988950;28;20531;-80
2022/07/23 05:12:33;;;;;;;7.22;5.50;;;;;;;13.96;100.00;100976.44;4976042;28;20043;-79
2022/07/23 05:14:59;;;;;;;7.97;5.97;;;;;;;14.01;100.00;100974.50;4975828;28;20042;-79
2022/07/23 05:17:26;;;;;;;7.18;6.47;;;;;;;14.00;100.00;100982.50;4966934;28;20043;-78
2022/07/23 05:19:53;;;;;;;7.38;5.63;;;;;;;13.98;100.00;100985.22;4960888;28;20042;-80
2022/07/23 05:22:26;;;;;;;8.45;5.65;;;;;;;14.01;100.00;100998.41;4940491;28;20053;-78
2022/07/23 05:24:52;;;;;;;11.35;6.00;;;;;;;14.05;100.00;100993.88;4971986;28;20061;-80
2022/07/23 05:27:19;;;;;;;7.15;5.53;;;;;;;14.06;100.00;100985.88;4954118;28;20640;-78
2022/07/23 05:29:46;;;;;;;6.78;5.20;;;;;;;14.09;100.00;100993.72;4979129;28;20043;-79
2022/07/23 05:32:12;;;;;;;8.55;6.15;;;;;;;14.10;100.00;100994.59;4956140;28;20050;-79
2022/07/23 05:34:39;;;;;;;7.25;5.88;;;;;;;14.14;100.00;101006.88;4947938;28;20042;-78
2022/07/23 05:37:06;;;;;;;7.72;6.45;;;;;;;14.19;100.00;101012.06;4977848;28;20133;-80
2022/07/23 05:39:32;;;;;;;7.70;6.00;;;;;;;14.21;100.00;101011.13;4941971;28;20047;-78
2022/07/23 05:41:59;;;;;;;9.68;6.00;;;;;;;14.23;100.00;101024.34;4961287;28;20042;-78
2022/07/23 05:44:27;;;;;;;8.80;6.57;;;;;;;14.27;100.00;101023.31;4959343;28;20047;-79
2022/07/23 05:47:00;;;;;;;10.32;5.88;;;;;;;14.32;100.00;101024.06;4971359;28;20034;-79
2022/07/23 05:49:30;;;;;;;7.47;5.85;;;;;;;14.40;100.00;101007.91;4971098;28;20070;-78
2022/07/23 05:51:57;;;;;;;9.43;6.65;;;;;;;14.45;100.00;100990.91;4960487;28;20044;-79
2022/07/23 05:54:23;;;;;;;9.27;6.13;;;;;;;14.46;100.00;100978.47;4973649;28;20046;-80
2022/07/23 05:56:50;;;;;;;8.40;5.93;;;;;;;14.45;100.00;100982.91;4965487;28;20454;-80
2022/07/23 05:59:16;;;;;;;7.25;5.60;;;;;;;14.45;100.00;100990.91;4944581;28;20044;-79
2022/07/23 06:01:43;;;;;;;8.38;5.82;;;;;;;14.56;100.00;100998.56;4970939;28;20042;-80
2022/07/23 06:04:10;;;;;;;7.70;5.72;;;;;;;14.66;100.00;101000.00;4975665;28;20046;-80
2022/07/23 06:06:37;;;;;;;6.20;5.10;;;;;;;14.78;100.00;101006.72;4951388;28;20054;-80
2022/07/23 06:09:03;;;;;;;7.50;6.05;;;;;;;14.91;100.00;100997.41;4977885;28;20043;-80
2022/07/23 06:11:31;;;;;;;8.13;5.95;;;;;;;15.11;100.00;100988.75;4990510;28;20402;-81
2022/07/23 06:13:58;;;;;;;7.13;5.40;;;;;;;15.13;100.00;100993.13;4954007;28;20150;-78
2022/07/23 06:16:24;;;;;;;9.00;5.85;;;;;;;15.23;100.00;100990.16;4968142;28;20107;-79
2022/07/23 06:18:51;;;;;;;8.65;6.60;;;;;;;15.30;100.00;100991.66;4969330;28;20053;-77
2022/07/23 06:21:18;;;;;;;9.20;6.20;;;;;;;15.46;100.00;100990.19;4939183;28;20062;-78
2022/07/23 06:24:05;;;;;;;7.13;5.35;;;;;;;15.55;100.00;100991.66;4959583;28;20395;-78
2022/07/23 06:26:31;;;;;;;8.02;5.45;;;;;;;15.61;100.00;101002.13;4969895;28;20046;-78
2022/07/23 06:29:01;;;;;;;7.47;5.45;;;;;;;15.68;100.00;101012.53;4958964;28;20030;-78
2022/07/23 06:31:28;;;;;;;5.47;4.45;;;;;;;15.75;100.00;101011.38;4972170;28;20031;-79
2022/07/23 06:33:55;;;;;;;7.60;5.05;;;;;;;15.76;100.00;101015.78;4946487;28;20035;-79
2022/07/23 06:36:22;;;;;;;5.45;4.80;;;;;;;15.79;100.00;101014.78;4971249;28;20106;-80
2022/07/23 06:38:49;;;;;;;6.30;4.78;;;;;;;15.84;100.00;101003.97;4964923;28;20043;-79
2022/07/23 06:41:15;;;;;;;5.38;4.40;;;;;;;15.77;100.00;101006.00;4969823;28;20035;-79
2022/07/23 06:43:42;;;;;;;6.15;5.18;;;;;;;15.61;100.00;100995.00;4949733;29;20069;-79
2022/07/23 06:46:09;;;;;;;6.10;4.40;;;;;;;15.48;100.00;100988.38;4981797;28;20043;-78
2022/07/23 06:48:36;;;;;;;6.18;4.40;;;;;;;15.53;100.00;100997.03;4974379;28;20082;-78
2022/07/23 06:51:03;;;;;;;5.43;4.00;;;;;;;15.54;100.00;101003.25;4988789;28;20121;-79
2022/07/23 06:53:30;;;;;;;5.22;4.30;;;;;;;15.53;100.00;100997.03;4963886;28;20047;-79
2022/07/23 06:55:57;;;;;;;5.95;4.13;;;;;;;15.56;100.00;101007.59;4956935;28;20466;-79
2022/07/23 06:58:23;;;;;;;7.13;5.40;;;;;;;15.61;100.00;101015.44;4974482;28;20070;-80
2022/07/23 07:00:51;;;;;;;7.35;4.70;;;;;;;15.89;100.00;101017.97;4965292;28;20043;-80
2022/07/23 07:03:18;;;;;;;5.38;4.15;;;;;;;16.00;100.00;101015.81;4968052;28;20035;-80
2022/07/23 07:05:45;;;;;;;4.75;3.80;;;;;;;16.01;100.00;101015.75;4971058;28;20098;-78
2022/07/23 07:08:12;;;;;;;5.15;4.50;;;;;;;16.12;100.00;100996.69;4971428;28;20043;-80
2022/07/23 07:10:39;;;;;;;5.63;4.45;;;;;;;15.96;100.00;101000.84;4954523;28;20034;-80
2022/07/23 07:13:06;;;;;;;5.68;3.83;;;;;;;16.13;100.00;101003.75;4982279;28;20051;-81
2022/07/23 07:15:32;;;;;;;5.50;4.05;;;;;;;16.20;100.00;100999.91;4965943;28;20070;-79
2022/07/23 07:17:59;;;;;;;6.00;4.40;;;;;;;16.26;100.00;101006.81;4963794;28;20042;-81
2022/07/23 07:20:26;;;;;;;5.45;4.53;;;;;;;16.42;100.00;101007.09;4939898;28;20046;-79
2022/07/23 07:22:53;;;;;;;6.63;4.60;;;;;;;16.46;100.00;100996.25;4943924;28;20101;-79
2022/07/23 07:25:20;;;;;;;5.28;4.20;;;;;;;16.35;100.00;100982.47;4965865;28;20046;-79
2022/07/23 07:27:47;;;;;;;5.57;4.50;;;;;;;16.16;100.00;100984.13;4969862;28;20049;-80
2022/07/23 07:30:13;;;;;;;6.55;4.55;;;;;;;16.14;100.00;100997.47;4950549;28;20050;-79
2022/07/23 07:32:41;;;;;;;5.82;4.15;;;;;;;16.19;100.00;100990.19;4941385;28;20134;-78
2022/07/23 07:35:24;;;;;;;6.80;3.95;;;;;;;16.30;100.00;100984.44;4937717;28;20071;-78
2022/07/23 07:37:51;;;;;;;4.97;4.25;;;;;;;16.36;100.00;100978.88;4958433;28;20114;-79
2022/07/23 07:40:18;;;;;;;6.95;4.25;;;;;;;16.39;100.00;100986.72;4964089;28;20039;-79
2022/07/23 07:42:46;;;;;;;5.53;4.28;;;;;;;16.59;100.00;100999.31;4941561;28;20047;-78
2022/07/23 07:45:13;;;;;;;5.20;3.90;;;;;;;16.75;100.00;100997.78;4940373;28;20038;-79
2022/07/23 07:47:41;;;;;;;7.88;4.53;;;;;;;16.82;100.00;101001.94;4972984;28;20543;-78
2022/07/23 07:50:08;;;;;;;4.57;3.15;;;;;;;16.96;100.00;100990.69;4960692;28;20042;-78
2022/07/23 07:52:36;;;;;;;5.38;3.88;;;;;;;17.02;100.00;100995.78;4970402;28;20046;-77
2022/07/23 07:55:08;;;;;;;5.30;3.67;;;;;;;16.95;100.00;100991.63;4940522;28;20126;-79
2022/07/23 07:57:35;;;;;;;5.63;3.53;;;;;;;16.96;100.00;100995.16;4955032;28;20038;-78
2022/07/23 08:00:07;;;;;;;5.55;3.17;;;;;;;16.94;100.00;101003.22;4962853;28;20046;-78
2022/07/23 08:02:48;;;;;;;5.25;3.78;;;;;;;17.07;100.00;101003.59;4959218;28;20501;-78
2022/07/23 08:05:24;;;;;;;4.68;3.63;;;;;;;17.16;100.00;100993.41;4957205;28;20042;-80
2022/07/23 08:07:55;;;;;;;6.18;4.03;;;;;;;17.27;100.00;100990.28;4965431;28;20035;-80
2022/07/23 08:10:23;;;;;;;4.50;3.70;;;;;;;17.40;100.00;100985.25;4942651;28;20042;-79
2022/07/23 08:12:53;;;;;;;4.93;3.85;;;;;;;17.17;100.00;100983.59;4974398;28;20038;-80
2022/07/23 08:15:24;;;;;;;4.57;3.20;;;;;;;17.20;100.00;100990.59;4943619;28;20051;-79
2022/07/23 08:17:58;;;;;;;3.85;3.30;;;;;;;17.14;100.00;100973.03;4943448;28;20039;-80
2022/07/23 08:20:26;;;;;;;4.78;3.45;;;;;;;17.24;100.00;100968.19;4959832;28;20063;-80
2022/07/23 08:23:14;;;;;;;7.97;3.40;;;;;;;17.34;100.00;100983.72;4945466;28;20043;-80
2022/07/23 08:25:42;;;;;;;4.88;3.40;;;;;;;17.54;100.00;100998.88;5002309;23;20068;-76
2022/07/23 08:28:11;;;;;;;4.70;3.35;;;;;;;17.81;100.00;100990.59;4992628;28;20052;-79
2022/07/23 08:30:39;;;;;;;3.88;3.53;;;;;;;18.03;100.00;100990.50;5002083;28;20041;-78
2022/07/23 08:33:14;;;;;;;3.85;3.55;;;;;;;18.27;100.00;100982.22;5024252;28;20099;-79
2022/07/23 08:35:56;;;;;;;5.05;3.65;;;;;;;18.59;100.00;100992.31;5015932;28;20064;-79
2022/07/23 08:38:25;;;;;;;3.65;3.35;;;;;;;18.95;97.02;100981.63;4997068;28;20383;-77
2022/07/23 08:40:53;;;;;;;4.05;3.10;;;;;;;19.23;98.03;100983.78;5026427;28;20042;-77
2022/07/23 08:43:25;;;;;;;4.13;3.20;;;;;;;19.59;86.55;100975.66;5027775;28;20041;-79
2022/07/23 08:45:56;;;;;;;5.50;2.97;;;;;;;19.99;86.68;100982.44;5027817;28;20041;-78
2022/07/23 08:48:25;;;;;;;3.63;2.47;;;;;;;20.50;84.39;100977.84;5029937;28;20127;-76
2022/07/23 08:50:54;;;;;;;4.72;3.40;;;;;;;21.08;80.64;100979.84;5012217;28;20044;-78
2022/07/23 08:53:25;;;;;;;5.82;2.60;;;;;;;21.55;72.13;100973.47;5013077;28;20048;-78
2022/07/23 08:55:54;;;;;;;4.32;2.50;;;;;;;21.85;70.60;100979.63;4995591;28;20080;-79
2022/07/23 08:58:22;;;;;;;4.15;2.70;;;;;;;21.74;67.30;100992.03;4997658;28;20067;-77
2022/07/23 09:00:54;;;;;;;14.18;4.43;;;;;;;21.11;63.62;100989.56;5040850;28;20099;-77
2022/07/23 09:03:23;;;;;;;3.50;2.30;;;;;;;21.30;64.94;100985.72;5031485;28;20414;-80
2022/07/23 09:05:51;;;;;;;4.07;2.67;;;;;;;21.46;66.55;100982.09;5016993;28;20037;-77
2022/07/23 09:08:21;;;;;;;16.10;3.88;;;;;;;21.44;67.25;100981.31;5040533;28;20082;-77
2022/07/23 09:10:54;;;;;;;4.18;3.10;;;;;;;21.21;63.40;100975.47;5029592;28;20048;-77
2022/07/23 09:13:31;;;;;;;5.43;3.22;;;;;;;21.11;62.93;100966.25;5008196;28;20049;-77
2022/07/23 09:16:05;;;;;;;5.90;3.15;;;;;;;21.60;62.54;100974.91;5043940;28;20037;-77
2022/07/23 09:18:34;;;;;;;4.22;2.83;;;;;;;21.75;60.95;100988.38;5035909;28;20037;-78
2022/07/23 09:21:39;;;;;;;3.92;2.58;;;;;;;21.89;63.73;100977.63;5008316;28;20045;-77
2022/07/23 09:24:11;;;;;;;5.35;3.42;;;;;;;21.98;60.50;100981.56;5017371;28;20399;-76
2022/07/23 09:26:46;;;;;;;4.47;3.47;;;;;;;22.02;59.37;100967.81;5010021;28;20037;-78
2022/07/23 09:29:27;;;;;;;3.65;2.60;;;;;;;22.05;59.26;100964.06;5025061;28;20452;-77
2022/07/23 09:31:59;;;;;;;3.95;3.13;;;;;;;22.39;57.14;100952.91;5018041;28;20052;-78
2022/07/23 09:34:40;;;;;;;4.07;2.55;;;;;;;22.75;58.99;100952.28;5038962;28;20406;-78
2022/07/23 09:37:17;;;;;;;3.67;2.88;;;;;;;22.99;55.95;100965.13;5008260;28;20049;-78
2022/07/23 09:39:46;;;;;;;3.25;2.45;;;;;;;22.87;59.00;100956.06;5025967;28;20047;-77
2022/07/23 09:42:19;;;;;;;5.07;2.92;;;;;;;23.18;58.02;100954.81;5005283;28;20430;-77
2022/07/23 09:44:48;;;;;;;3.65;2.47;;;;;;;22.94;53.16;100957.34;5019868;28;20241;-77
2022/07/23 09:47:15;;;;;;;5.70;2.83;;;;;;;23.08;55.72;100958.25;5006625;28;20048;-78
2022/07/23 09:50:01;;;;;;;5.43;3.28;;;;;;;23.26;52.56;100965.06;5011101;28;20498;-78
2022/07/23 09:52:29;;;;;;;3.83;2.50;;;;;;;23.68;54.05;100979.28;5017298;28;20049;-76
2022/07/23 09:55:03;;;;;;;;;;;;;;;23.71;49.93;100970.97;5030590;28;20083;-78
2022/07/23 09:57:31;;;;;;;3.83;3.08;;;;;;;23.91;49.84;100981.22;5017545;28;19928;-78
2022/07/23 10:00:00;;;;;;;4.18;2.42;;;;;;;23.94;51.06;100985.53;5015113;28;20040;-77
2022/07/23 10:02:28;;;;;;;3.65;2.75;;;;;;;24.09;51.09;100979.03;5027831;28;20041;-78
2022/07/23 10:04:55;;;;;;;3.00;2.50;;;;;;;24.19;48.47;100990.03;5027061;28;20091;-79
2022/07/23 10:07:23;;;;;;;3.15;2.38;;;;;;;24.00;49.52;100983.28;5043145;28;20429;-78
2022/07/23 10:09:52;;;;;;;4.20;2.85;;;;;;;24.14;49.82;100991.25;5027600;28;20152;-78
2022/07/23 10:12:24;;;;;;;3.17;2.63;;;;;;;24.66;49.30;100978.50;5024038;28;20068;-79
2022/07/23 10:14:52;;;;;;;3.38;2.60;;;;;;;25.04;46.87;100991.84;5023432;28;20034;-79
2022/07/23 10:17:19;;;;;;;5.13;2.22;;;;;;;25.04;49.03;100994.56;5041315;28;20048;-79
2022/07/23 10:19:46;;;;;;;3.10;2.55;;;;;;;24.46;47.53;100993.47;5011081;28;20071;-78
2022/07/23 10:22:19;;;;;;;3.70;2.70;;;;;;;24.39;47.92;101003.00;5011657;28;20687;-78
2022/07/23 10:25:09;;;;;;;4.68;2.65;;;;;;;24.07;48.50;100995.34;5009296;28;20033;-78
2022/07/23 10:27:51;;;;;;;4.95;2.92;;;;;;;24.16;49.06;100988.44;4998109;28;20049;-77
2022/07/23 10:30:33;;;;;;;25.58;23.25;;;;;;;24.63;46.56;100982.28;5010850;28;20043;-77
2022/07/23 10:33:29;;;;;;;5.53;3.28;;;;;;;24.60;48.15;100990.63;5026400;28;20037;-77
2022/07/23 10:36:03;;;;;;;3.60;3.30;;;;;;;25.00;46.33;100993.03;5020633;28;20056;-80
2022/07/23 10:38:55;;;;;;;12.65;11.80;;;;;;;25.09;46.87;100986.97;5011228;28;20048;-77
2022/07/23 10:41:32;;;;;;;16.80;15.48;;;;;;;25.35;45.95;100979.56;5012498;28;20056;-77
2022/07/23 10:44:06;;;;;;;10.85;7.80;;;;;;;25.35;45.47;100994.94;5028126;28;20052;-79
2022/07/23 10:46:52;;;;;;;46.17;42.42;;;;;;;24.99;44.85;100996.72;5007460;28;20135;-80
2022/07/23 10:49:27;;;;;;;9.43;8.50;;;;;;;25.30;45.86;100989.00;5031873;28;20045;-79
2022/07/23 10:52:14;;;;;;;4.20;2.83;;;;;;;25.50;44.95;100983.78;5013455;28;20048;-81
2022/07/23 10:54:41;;;;;;;3.08;2.28;;;;;;;25.96;44.90;100982.03;5031308;28;20128;-79
2022/07/23 10:57:09;;;;;;;3.20;2.30;;;;;;;26.31;43.43;100979.19;5030487;28;20535;-78
2022/07/23 11:00:01;;;;;;;4.65;2.78;;;;;;;26.05;43.38;100982.16;5026394;28;20038;-79
2022/07/23 11:02:29;;;;;;;4.10;2.40;;;;;;;25.77;42.86;100980.78;5027732;28;20045;-78
2022/07/23 11:05:04;;;;;;;3.95;2.65;;;;;;;25.49;44.48;100989.31;5011412;28;20037;-79
2022/07/23 11:07:31;;;;;;;2.55;2.03;;;;;;;25.67;45.12;100982.47;5009866;28;20049;-78
2022/07/23 11:09:58;;;;;;;3.92;3.20;;;;;;;25.92;43.20;100988.69;5026624;28;20045;-77
2022/07/23 11:12:24;;;;;;;3.42;2.67;;;;;;;25.66;43.16;100980.75;5022086;28;20053;-80
2022/07/23 11:15:01;;;;;;;2.40;2.10;;;;;;;25.63;44.68;100975.56;5027998;28;20041;-80
2022/07/23 11:17:28;;;;;;;4.32;2.40;;;;;;;25.37;45.74;100982.16;5011551;28;20049;-78
2022/07/23 11:20:07;;;;;;;3.35;2.53;;;;;;;25.16;44.95;100974.72;5026818;28;20060;-76
2022/07/23 11:22:43;;;;;;;4.22;2.60;;;;;;;25.39;44.88;100975.66;5027986;28;20047;-79
2022/07/23 11:25:12;;;;;;;5.22;3.10;;;;;;;25.79;44.65;100973.41;5044654;28;20039;-79
2022/07/23 11:27:42;;;;;;;3.42;2.67;;;;;;;25.65;44.44;100984.44;5013480;28;20111;-80
2022/07/23 11:30:11;;;;;;;2.75;2.45;;;;;;;25.55;44.55;100983.41;5045538;28;20060;-79